Time;durP1;ratioP1;P1;durP2;ratioP2;P2;SDS_P1;SDS_P2;PMS_P1;PMS_P2;Temp;Humidity;BMP_temperature;BMP_pressure;BME280_temperature;BME280_humidity;BME280_pressure;Samples;Min_cycle;Max_cycle;Signal;HPM_P1;HPM_P2
2023/12/16 00:00:19;;;;;;;26.83;5.38;;;;;;;7.09;100.00;103602.06;5014512;28;20037;-86
2023/12/16 00:02:46;;;;;;;27.23;5.85;;;;;;;7.08;100.00;103603.84;4994231;28;20057;-87
2023/12/16 00:05:12;;;;;;;17.40;5.25;;;;;;;7.07;100.00;103612.09;5010165;28;20033;-87
2023/12/16 00:07:40;;;;;;;26.42;5.57;;;;;;;7.07;100.00;103609.38;5013925;28;20128;-87
2023/12/16 00:10:06;;;;;;;19.02;5.22;;;;;;;7.00;100.00;103611.28;5024951;28;20043;-86
2023/12/16 00:12:32;;;;;;;20.75;5.55;;;;;;;7.04;100.00;103613.03;5003562;28;20040;-88
2023/12/16 00:14:57;;;;;;;22.45;6.18;;;;;;;7.08;100.00;103616.59;5016043;28;20029;-88
2023/12/16 00:17:24;;;;;;;18.23;5.00;;;;;;;7.08;100.00;103617.47;5039821;28;20025;-87
2023/12/16 00:19:50;;;;;;;22.77;6.10;;;;;;;7.09;100.00;103615.66;4984990;28;20503;-89
2023/12/16 00:22:16;;;;;;;17.25;5.32;;;;;;;7.06;100.00;103619.34;4981015;28;20052;-88
2023/12/16 00:24:42;;;;;;;18.38;5.18;;;;;;;7.06;100.00;103619.34;4986668;28;20037;-88
2023/12/16 00:27:09;;;;;;;22.58;5.03;;;;;;;7.06;100.00;103615.72;5010021;28;20371;-87
2023/12/16 00:29:34;;;;;;;16.02;5.47;;;;;;;7.06;100.00;103608.44;5034837;28;20092;-87
2023/12/16 00:32:01;;;;;;;22.20;5.22;;;;;;;7.05;100.00;103614.84;5001782;28;20033;-87
2023/12/16 00:34:27;;;;;;;16.08;5.05;;;;;;;7.04;100.00;103610.31;4998149;28;20029;-88
2023/12/16 00:36:54;;;;;;;18.10;5.15;;;;;;;7.06;100.00;103615.72;4996309;28;20483;-89
2023/12/16 00:39:19;;;;;;;24.73;5.40;;;;;;;7.06;100.00;103610.28;5022080;28;20135;-88
2023/12/16 00:41:47;;;;;;;22.00;5.72;;;;;;;7.07;100.00;103598.47;5011386;28;20044;-88
2023/12/16 00:44:12;;;;;;;26.88;4.72;;;;;;;7.06;100.00;103596.66;5012697;28;20142;-87
2023/12/16 00:46:38;;;;;;;29.35;5.50;;;;;;;7.07;100.00;103598.47;5017698;28;20040;-87
2023/12/16 00:49:04;;;;;;;19.95;4.82;;;;;;;7.06;100.00;103607.56;5018529;28;20029;-88
2023/12/16 00:51:29;;;;;;;23.40;4.47;;;;;;;7.05;100.00;103609.41;5016906;28;20029;-87
2023/12/16 00:53:55;;;;;;;15.35;3.80;;;;;;;7.04;100.00;103606.69;5004348;28;20119;-87
2023/12/16 00:56:21;;;;;;;21.58;4.28;;;;;;;7.09;100.00;103605.66;4979204;28;20041;-87
2023/12/16 00:58:47;;;;;;;14.90;4.25;;;;;;;7.07;100.00;103615.69;5013781;28;20063;-87
2023/12/16 01:01:16;;;;;;;18.77;4.40;;;;;;;7.03;100.00;103608.50;5016514;28;20701;-88
2023/12/16 01:03:42;;;;;;;17.70;4.43;;;;;;;7.04;100.00;103602.13;4998189;28;20030;-87
2023/12/16 01:06:08;;;;;;;25.73;4.82;;;;;;;7.07;100.00;103610.25;4996074;28;20468;-88
2023/12/16 01:08:33;;;;;;;21.73;5.20;;;;;;;7.04;100.00;103614.88;5014693;28;20060;-87
2023/12/16 01:10:59;;;;;;;30.55;4.32;;;;;;;7.08;100.00;103611.13;5027815;28;20055;-89
2023/12/16 01:13:25;;;;;;;17.02;4.88;;;;;;;7.02;100.00;103609.44;5017096;28;20536;-87
2023/12/16 01:15:53;;;;;;;26.15;4.50;;;;;;;7.02;100.00;103619.41;5018324;28;20037;-88
2023/12/16 01:18:18;;;;;;;16.98;4.63;;;;;;;7.01;100.00;103620.38;5002493;28;20025;-88
2023/12/16 01:20:43;;;;;;;18.75;4.60;;;;;;;7.04;100.00;103612.16;5009951;28;20036;-88
2023/12/16 01:23:10;;;;;;;18.80;4.15;;;;;;;7.03;100.00;103607.63;5002092;28;20495;-88
2023/12/16 01:25:39;;;;;;;21.42;4.70;;;;;;;7.08;100.00;103611.13;4997294;28;20033;-87
2023/12/16 01:28:06;;;;;;;21.30;4.65;;;;;;;7.05;100.00;103609.41;5015088;28;20032;-88
2023/12/16 01:30:31;;;;;;;28.38;5.05;;;;;;;7.02;100.00;103606.72;5009918;28;20046;-86
2023/12/16 01:32:57;;;;;;;19.42;4.93;;;;;;;7.01;100.00;103599.47;5036867;28;20522;-87
2023/12/16 01:35:22;;;;;;;17.85;4.35;;;;;;;7.02;100.00;103593.09;5022083;28;20144;-88
2023/12/16 01:37:48;;;;;;;27.02;4.90;;;;;;;6.97;100.00;103585.03;5025528;28;20030;-87
2023/12/16 01:40:15;;;;;;;19.20;4.15;;;;;;;6.99;100.00;103588.59;5031033;28;20055;-86
2023/12/16 01:42:40;;;;;;;23.67;4.60;;;;;;;6.96;100.00;103571.44;5007562;28;20095;-87
2023/12/16 01:45:06;;;;;;;16.23;4.50;;;;;;;6.99;100.00;103580.44;5000037;28;20425;-87
2023/12/16 01:47:32;;;;;;;22.63;4.15;;;;;;;7.04;100.00;103576.72;5034623;28;20047;-88
2023/12/16 01:49:58;;;;;;;20.40;4.13;;;;;;;6.98;100.00;103580.47;5027817;28;20101;-87
2023/12/16 01:52:24;;;;;;;17.80;4.13;;;;;;;7.00;100.00;103589.50;5014878;28;20034;-86
2023/12/16 01:54:50;;;;;;;22.77;4.28;;;;;;;7.01;100.00;103596.75;5026118;28;20112;-87
2023/12/16 01:57:16;;;;;;;19.20;4.28;;;;;;;7.03;100.00;103594.88;4996866;28;20131;-88
2023/12/16 01:59:42;;;;;;;25.42;4.47;;;;;;;7.01;100.00;103601.31;5017651;28;20083;-93
2023/12/16 02:02:08;;;;;;;14.73;3.72;;;;;;;7.01;100.00;103593.13;5041608;28;20028;-92
2023/12/16 02:04:34;;;;;;;19.48;4.35;;;;;;;7.02;100.00;103578.56;5056014;28;20077;-94
2023/12/16 02:07:00;;;;;;;17.50;4.20;;;;;;;7.01;100.00;103582.25;5026788;28;20033;-94
2023/12/16 02:09:26;;;;;;;19.70;4.30;;;;;;;7.01;100.00;103585.84;5038533;28;20375;-93
2023/12/16 02:11:52;;;;;;;14.05;3.70;;;;;;;6.98;100.00;103583.19;5038228;28;20041;-93
2023/12/16 02:14:18;;;;;;;14.05;3.95;;;;;;;6.99;100.00;103588.59;5036656;28;20029;-93
2023/12/16 02:16:44;;;;;;;20.42;3.75;;;;;;;6.99;100.00;103595.88;5018674;28;20084;-92
2023/12/16 02:19:26;;;;;;;12.93;3.55;;;;;;;6.96;100.00;103602.28;4990115;28;20078;-93
2023/12/16 02:21:52;;;;;;;12.60;3.40;;;;;;;7.01;100.00;103599.47;5032089;28;20064;-92
2023/12/16 02:24:19;;;;;;;19.42;3.60;;;;;;;7.01;100.00;103602.19;5017872;28;20024;-93
2023/12/16 02:26:45;;;;;;;21.42;3.72;;;;;;;7.03;100.00;103596.72;5017106;28;20120;-93
2023/12/16 02:29:10;;;;;;;16.45;3.00;;;;;;;6.99;100.00;103593.16;5001203;28;20762;-92
2023/12/16 02:31:36;;;;;;;16.50;3.40;;;;;;;7.00;100.00;103584.03;5022690;28;20055;-93
2023/12/16 02:34:01;;;;;;;16.48;4.10;;;;;;;7.01;100.00;103585.84;5036752;28;20120;-93
2023/12/16 02:36:27;;;;;;;12.93;3.40;;;;;;;6.99;100.00;103590.44;5014584;28;20398;-93
2023/12/16 02:38:52;;;;;;;18.88;4.13;;;;;;;6.99;100.00;103585.88;5040330;28;20053;-92
2023/12/16 02:41:17;;;;;;;18.27;4.18;;;;;;;7.02;100.00;103597.63;5017472;28;20032;-93
2023/12/16 02:43:43;;;;;;;15.55;2.92;;;;;;;6.96;100.00;103596.81;5024115;28;20487;-93
2023/12/16 02:46:09;;;;;;;17.67;3.78;;;;;;;6.97;100.00;103585.03;5015004;28;20082;-93
2023/12/16 02:48:34;;;;;;;13.75;4.03;;;;;;;6.95;100.00;103594.13;5056409;28;20100;-94
2023/12/16 02:51:00;;;;;;;20.80;3.70;;;;;;;6.89;100.00;103594.28;5038908;28;20049;-93
2023/12/16 02:53:25;;;;;;;20.67;4.18;;;;;;;6.95;100.00;103595.06;5043294;28;20039;-94
2023/12/16 02:55:51;;;;;;;20.55;3.22;;;;;;;7.00;100.00;103594.94;5017778;28;20037;-93
2023/12/16 02:58:16;;;;;;;18.13;3.30;;;;;;;6.98;100.00;103589.56;5012777;28;20479;-93
2023/12/16 03:00:42;;;;;;;20.65;4.13;;;;;;;6.89;100.00;103595.16;5017076;28;20041;-93
2023/12/16 03:03:07;;;;;;;17.08;3.85;;;;;;;6.84;100.00;103590.72;4997870;28;20036;-93
2023/12/16 03:05:33;;;;;;;18.20;3.40;;;;;;;6.77;100.00;103582.69;5028579;28;20037;-91
2023/12/16 03:07:58;;;;;;;17.10;4.07;;;;;;;6.73;100.00;103586.38;5033622;28;20040;-92
2023/12/16 03:10:24;;;;;;;20.33;3.95;;;;;;;6.71;100.00;103588.25;5025736;28;20037;-87
2023/12/16 03:12:50;;;;;;;22.45;4.82;;;;;;;6.68;100.00;103588.28;5020244;28;20032;-87
2023/12/16 03:15:16;;;;;;;11.05;3.40;;;;;;;6.66;100.00;103592.88;5039573;28;20033;-87
2023/12/16 03:17:43;;;;;;;12.40;3.92;;;;;;;6.60;100.00;103590.25;5020793;28;20394;-87
2023/12/16 03:20:09;;;;;;;22.88;4.30;;;;;;;6.55;100.00;103600.34;5018224;28;20119;-87
2023/12/16 03:22:35;;;;;;;18.60;3.97;;;;;;;6.58;100.00;103593.00;5014999;28;20044;-88
2023/12/16 03:25:01;;;;;;;18.30;3.83;;;;;;;6.52;100.00;103595.84;5025052;28;20051;-86
2023/12/16 03:27:26;;;;;;;16.70;3.20;;;;;;;6.55;100.00;103592.19;5036996;28;20486;-88
2023/12/16 03:29:52;;;;;;;19.20;4.35;;;;;;;6.56;100.00;103597.59;5018801;28;20029;-87
2023/12/16 03:32:18;;;;;;;17.48;3.22;;;;;;;6.55;100.00;103595.78;5026272;28;20039;-87
2023/12/16 03:34:44;;;;;;;13.45;4.22;;;;;;;6.49;100.00;103590.44;5041759;28;20029;-88
2023/12/16 03:37:12;;;;;;;25.42;4.57;;;;;;;6.50;100.00;103594.97;5029467;28;20104;-88
2023/12/16 03:39:42;;;;;;;17.10;3.78;;;;;;;6.52;100.00;103589.50;5040613;28;20053;-88
2023/12/16 03:42:08;;;;;;;20.48;4.82;;;;;;;6.49;100.00;103587.72;5028837;28;20036;-88
2023/12/16 03:44:34;;;;;;;17.35;4.30;;;;;;;6.48;100.00;103585.03;5020491;28;20021;-88
2023/12/16 03:47:00;;;;;;;19.52;5.35;;;;;;;6.47;100.00;103588.69;5014063;28;20175;-87
2023/12/16 03:49:28;;;;;;;22.30;4.32;;;;;;;6.44;100.00;103585.09;5016467;28;20119;-87
2023/12/16 03:51:56;;;;;;;17.13;4.15;;;;;;;6.44;100.00;103581.47;5034278;28;20036;-86
2023/12/16 03:54:21;;;;;;;15.38;3.83;;;;;;;6.40;100.00;103580.63;5019135;28;20029;-87
2023/12/16 03:56:48;;;;;;;13.77;3.92;;;;;;;6.38;100.00;103581.59;5032424;28;20441;-87
2023/12/16 03:59:13;;;;;;;16.48;3.88;;;;;;;6.43;100.00;103582.41;5031516;28;20048;-88
2023/12/16 04:01:46;;;;;;;17.75;4.07;;;;;;;6.42;100.00;103580.59;5016322;28;20030;-87
2023/12/16 04:04:11;;;;;;;16.25;4.03;;;;;;;6.42;100.00;103586.94;5023517;28;20560;-87
2023/12/16 04:06:37;;;;;;;19.02;4.28;;;;;;;6.43;100.00;103575.13;5019375;28;20045;-87
2023/12/16 04:09:02;;;;;;;12.45;3.30;;;;;;;6.42;100.00;103575.16;5029852;28;20033;-87
2023/12/16 04:11:28;;;;;;;22.80;4.30;;;;;;;6.40;100.00;103571.56;5034056;28;20059;-87
2023/12/16 04:13:53;;;;;;;17.60;3.90;;;;;;;6.45;100.00;103575.09;5035794;28;20171;-87
2023/12/16 04:16:19;;;;;;;15.90;4.68;;;;;;;6.43;100.00;103580.56;5022345;28;20115;-87
2023/12/16 04:18:45;;;;;;;19.30;4.60;;;;;;;6.42;100.00;103573.31;5027804;28;20067;-87
2023/12/16 04:21:10;;;;;;;13.95;3.45;;;;;;;6.44;100.00;103576.94;5055360;28;20071;-87
2023/12/16 04:23:36;;;;;;;13.75;3.42;;;;;;;6.46;100.00;103582.34;5020724;28;20182;-87
2023/12/16 04:26:03;;;;;;;16.10;3.70;;;;;;;6.41;100.00;103582.44;5031631;28;20513;-88
2023/12/16 04:28:28;;;;;;;12.80;3.90;;;;;;;6.41;100.00;103582.44;5023723;28;20064;-87
2023/12/16 04:30:54;;;;;;;20.38;4.50;;;;;;;6.46;100.00;103584.16;5021304;28;20487;-88
2023/12/16 04:33:21;;;;;;;21.45;3.92;;;;;;;6.40;100.00;103569.75;5033663;28;20166;-87
2023/12/16 04:35:46;;;;;;;15.10;3.95;;;;;;;6.42;100.00;103576.03;5033131;28;20037;-87
2023/12/16 04:38:14;;;;;;;15.20;4.40;;;;;;;6.47;100.00;103577.81;5043964;28;20044;-86
2023/12/16 04:40:39;;;;;;;17.13;4.32;;;;;;;6.46;100.00;103576.91;5010642;28;20045;-87
2023/12/16 04:43:05;;;;;;;13.75;4.18;;;;;;;6.48;100.00;103590.47;5034933;28;20405;-88
2023/12/16 04:45:31;;;;;;;23.80;3.90;;;;;;;6.51;100.00;103595.84;5014057;28;20098;-88
2023/12/16 04:47:56;;;;;;;20.73;4.80;;;;;;;6.52;100.00;103592.22;5034804;28;20098;-88
2023/12/16 04:50:22;;;;;;;14.68;4.30;;;;;;;6.54;100.00;103590.38;5018560;28;20403;-88
2023/12/16 04:52:47;;;;;;;22.02;5.72;;;;;;;6.52;100.00;103586.78;5021624;28;20036;-88
2023/12/16 04:55:13;;;;;;;22.33;4.25;;;;;;;6.56;100.00;103588.50;5038054;28;20033;-87
2023/12/16 04:57:39;;;;;;;16.83;3.53;;;;;;;6.56;100.00;103583.06;5030379;28;20037;-87
2023/12/16 05:00:05;;;;;;;15.30;4.43;;;;;;;6.57;100.00;103579.44;5017165;28;20094;-87
2023/12/16 05:02:31;;;;;;;24.17;4.55;;;;;;;6.60;100.00;103576.66;5025687;28;20406;-86
2023/12/16 05:04:56;;;;;;;14.30;4.38;;;;;;;6.64;100.00;103586.56;5004002;28;20475;-87
2023/12/16 05:07:21;;;;;;;21.88;3.90;;;;;;;6.60;100.00;103571.22;5040087;28;20131;-87
2023/12/16 05:09:47;;;;;;;13.43;3.53;;;;;;;6.64;100.00;103570.25;5042908;28;20033;-87
2023/12/16 05:12:12;;;;;;;15.32;4.25;;;;;;;6.64;100.00;103559.34;5039620;28;20123;-87
2023/12/16 05:14:42;;;;;;;17.08;4.38;;;;;;;6.65;100.00;103565.69;5016775;28;20056;-87
2023/12/16 05:17:08;;;;;;;26.60;4.45;;;;;;;6.65;100.00;103568.41;5026120;28;20037;-87
2023/12/16 05:19:33;;;;;;;14.77;3.85;;;;;;;6.61;100.00;103570.28;5046683;28;20119;-86
2023/12/16 05:22:02;;;;;;;16.85;3.78;;;;;;;6.66;100.00;103575.63;5038468;28;20025;-87
2023/12/16 05:24:27;;;;;;;28.75;3.88;;;;;;;6.60;100.00;103579.38;5014830;28;20122;-87
2023/12/16 05:26:52;;;;;;;20.13;3.30;;;;;;;6.56;100.00;103574.91;5039574;28;20025;-87
2023/12/16 05:29:19;;;;;;;20.05;3.53;;;;;;;6.53;100.00;103586.75;5035069;28;20960;-86
2023/12/16 05:31:45;;;;;;;20.73;3.92;;;;;;;6.49;100.00;103586.81;5043518;28;20037;-96
2023/12/16 05:34:11;;;;;;;19.90;3.60;;;;;;;6.44;100.00;103596.00;5020318;28;20120;-93
2023/12/16 05:36:36;;;;;;;14.73;3.80;;;;;;;6.43;100.00;103593.28;5004258;28;20164;-91
2023/12/16 05:39:03;;;;;;;16.63;3.58;;;;;;;6.43;100.00;103587.84;5003722;28;20180;-92
2023/12/16 05:41:29;;;;;;;13.73;3.25;;;;;;;6.49;100.00;103586.81;5049544;28;20038;-91
2023/12/16 05:43:54;;;;;;;20.58;4.72;;;;;;;6.39;100.00;103581.53;5020981;28;20040;-93
2023/12/16 05:46:19;;;;;;;25.85;3.72;;;;;;;6.35;100.00;103587.09;5027004;28;20040;-94
2023/12/16 05:48:45;;;;;;;26.48;3.92;;;;;;;6.36;100.00;103587.06;5024007;28;20033;-93
2023/12/16 05:51:10;;;;;;;22.83;3.38;;;;;;;6.28;100.00;103591.75;5021478;28;20098;-93
2023/12/16 05:53:35;;;;;;;23.75;3.83;;;;;;;6.25;100.00;103589.06;5003182;28;20045;-94
2023/12/16 05:56:05;;;;;;;19.25;3.97;;;;;;;6.25;100.00;103586.34;5027723;28;20029;-92
2023/12/16 05:58:30;;;;;;;22.52;4.32;;;;;;;6.18;100.00;103591.00;5044853;28;20430;-94
2023/12/16 06:00:56;;;;;;;19.55;3.97;;;;;;;6.18;100.00;103592.78;5032745;28;20029;-93
2023/12/16 06:03:22;;;;;;;16.33;3.65;;;;;;;6.08;100.00;103597.47;5036217;28;20097;-95
2023/12/16 06:05:48;;;;;;;19.48;4.93;;;;;;;6.09;100.00;103609.28;5024526;28;20542;-93
2023/12/16 06:08:13;;;;;;;20.23;3.60;;;;;;;6.05;100.00;103603.88;5047582;28;20033;-93
2023/12/16 06:10:38;;;;;;;23.00;3.95;;;;;;;5.97;100.00;103603.09;5038920;28;20496;-93
2023/12/16 06:13:05;;;;;;;22.65;3.92;;;;;;;6.01;100.00;103610.28;5038882;28;20075;-92
2023/12/16 06:15:30;;;;;;;25.92;3.85;;;;;;;5.96;100.00;103612.16;5012206;28;20026;-93
2023/12/16 06:17:59;;;;;;;16.38;3.72;;;;;;;5.91;100.00;103613.16;5039457;28;20036;-93
2023/12/16 06:20:24;;;;;;;21.13;4.15;;;;;;;5.89;100.00;103613.16;5021955;28;20039;-94
2023/12/16 06:22:50;;;;;;;20.38;4.32;;;;;;;5.85;100.00;103609.59;4991385;28;20037;-95
2023/12/16 06:25:17;;;;;;;23.92;4.18;;;;;;;5.83;100.00;103615.97;5049063;28;20036;-93
2023/12/16 06:27:44;;;;;;;19.98;3.75;;;;;;;5.83;100.00;103618.69;5040957;28;20055;-94
2023/12/16 06:30:11;;;;;;;20.70;4.47;;;;;;;5.80;100.00;103619.63;5010346;28;20056;-94
2023/12/16 06:32:37;;;;;;;21.08;4.47;;;;;;;5.79;100.00;103606.03;5019378;28;20052;-94
2023/12/16 06:35:03;;;;;;;25.35;4.10;;;;;;;5.87;100.00;103606.81;5056936;28;20059;-95
2023/12/16 06:37:29;;;;;;;21.60;4.00;;;;;;;5.78;100.00;103601.53;5011268;28;20041;-96
2023/12/16 06:39:55;;;;;;;18.63;3.40;;;;;;;5.80;100.00;103597.88;5012399;28;20064;-87
2023/12/16 06:42:22;;;;;;;15.27;3.83;;;;;;;5.77;100.00;103594.28;5023606;28;20036;-87
2023/12/16 06:44:47;;;;;;;19.00;4.28;;;;;;;5.75;100.00;103586.16;5032158;28;20386;-88
2023/12/16 06:47:13;;;;;;;14.60;3.65;;;;;;;5.73;100.00;103585.28;5016373;28;20035;-88
2023/12/16 06:49:39;;;;;;;24.05;4.10;;;;;;;5.75;100.00;103578.00;5018974;28;20093;-88
2023/12/16 06:52:05;;;;;;;17.67;3.63;;;;;;;5.73;100.00;103579.84;5037678;28;20061;-88
2023/12/16 06:54:31;;;;;;;24.63;5.07;;;;;;;5.68;100.00;103577.19;5000266;28;20057;-87
2023/12/16 06:56:56;;;;;;;18.38;4.20;;;;;;;5.67;100.00;103580.84;5001887;28;20025;-87
2023/12/16 06:59:22;;;;;;;24.33;5.18;;;;;;;5.66;100.00;103581.78;5038845;28;20271;-87
2023/12/16 07:01:47;;;;;;;23.15;4.38;;;;;;;5.66;100.00;103586.31;5013797;28;20047;-86
2023/12/16 07:04:16;;;;;;;24.13;3.97;;;;;;;5.61;100.00;103596.34;5028359;28;20028;-89
2023/12/16 07:06:43;;;;;;;19.17;3.42;;;;;;;5.62;100.00;103589.97;5005887;28;20033;-87
2023/12/16 07:09:10;;;;;;;23.98;4.28;;;;;;;5.69;100.00;103600.75;5012694;28;20029;-88
2023/12/16 07:11:35;;;;;;;25.00;4.20;;;;;;;5.57;100.00;103597.31;5008494;28;20422;-87
2023/12/16 07:14:01;;;;;;;31.15;4.72;;;;;;;5.67;100.00;103604.41;5037641;28;20086;-87
2023/12/16 07:16:26;;;;;;;25.35;4.55;;;;;;;5.63;100.00;103608.97;5008462;28;20789;-87
2023/12/16 07:18:54;;;;;;;15.55;3.67;;;;;;;5.59;100.00;103609.97;5009943;28;20037;-87
2023/12/16 07:21:20;;;;;;;13.95;3.38;;;;;;;5.63;100.00;103614.44;5053867;28;20031;-87
2023/12/16 07:23:46;;;;;;;19.65;4.32;;;;;;;5.62;100.00;103628.03;5015423;28;20124;-86
2023/12/16 07:26:13;;;;;;;23.92;4.30;;;;;;;5.56;100.00;103625.38;5033199;28;20558;-88
2023/12/16 07:28:38;;;;;;;19.98;4.22;;;;;;;5.58;100.00;103631.72;5049187;28;20025;-85
2023/12/16 07:31:04;;;;;;;28.40;4.75;;;;;;;5.56;100.00;103622.66;5040800;28;20387;-88
2023/12/16 07:33:30;;;;;;;20.02;4.00;;;;;;;5.53;100.00;103626.34;5017433;28;20044;-91
2023/12/16 07:35:56;;;;;;;16.77;3.78;;;;;;;5.45;100.00;103628.25;5020441;28;20036;-87
2023/12/16 07:38:24;;;;;;;29.88;4.22;;;;;;;5.49;100.00;103632.72;5028032;28;20045;-90
2023/12/16 07:40:49;;;;;;;21.05;4.05;;;;;;;5.51;100.00;103630.91;5006723;28;20060;-89
2023/12/16 07:43:15;;;;;;;44.40;5.57;;;;;;;5.50;100.00;103637.25;5011582;28;20033;-87
2023/12/16 07:45:41;;;;;;;17.27;4.03;;;;;;;5.47;100.00;103640.88;5035777;28;20499;-89
2023/12/16 07:48:06;;;;;;;18.92;3.67;;;;;;;5.46;100.00;103633.69;5003781;28;20029;-90
2023/12/16 07:50:32;;;;;;;27.58;4.22;;;;;;;5.50;100.00;103642.69;5003044;28;20033;-89
2023/12/16 07:52:58;;;;;;;23.15;4.13;;;;;;;5.51;100.00;103647.22;5009288;28;20056;-92
2023/12/16 07:55:27;;;;;;;16.73;3.88;;;;;;;5.46;100.00;103649.97;5032811;28;20136;-91
2023/12/16 07:57:53;;;;;;;27.10;4.55;;;;;;;5.55;100.00;103646.25;5032568;28;20029;-90
2023/12/16 08:00:20;;;;;;;17.40;3.50;;;;;;;5.55;100.00;103651.69;5018994;28;20037;-92
2023/12/16 08:02:45;;;;;;;23.17;3.85;;;;;;;5.55;100.00;103640.81;5035487;28;20033;-92
2023/12/16 08:05:11;;;;;;;19.35;4.65;;;;;;;5.56;100.00;103647.13;5019965;28;20035;-93
2023/12/16 08:07:38;;;;;;;21.30;4.30;;;;;;;5.59;100.00;103645.28;5017265;28;20040;-93
2023/12/16 08:10:04;;;;;;;24.73;3.58;;;;;;;5.57;100.00;103654.38;5022896;28;20032;-93
2023/12/16 08:12:31;;;;;;;24.52;4.45;;;;;;;5.56;100.00;103661.63;5012971;28;20034;-92
2023/12/16 08:14:57;;;;;;;24.67;4.43;;;;;;;5.63;100.00;103666.06;5055289;28;20039;-94
2023/12/16 08:17:22;;;;;;;14.27;3.50;;;;;;;5.74;100.00;103667.72;5024481;28;20041;-93
2023/12/16 08:19:48;;;;;;;16.25;3.55;;;;;;;5.74;100.00;103667.72;5023270;28;20029;-94
2023/12/16 08:22:13;;;;;;;16.08;4.20;;;;;;;5.79;100.00;103660.41;5005496;28;20036;-90
2023/12/16 08:24:42;;;;;;;24.40;4.13;;;;;;;5.77;100.00;103660.47;5016745;28;20033;-90
2023/12/16 08:27:07;;;;;;;22.05;3.92;;;;;;;5.76;100.00;103661.38;5024530;28;20123;-90
2023/12/16 08:29:33;;;;;;;17.85;3.90;;;;;;;5.78;100.00;103655.91;5037083;28;20124;-90
2023/12/16 08:31:58;;;;;;;19.48;3.38;;;;;;;5.79;100.00;103660.41;5002401;28;20391;-87
2023/12/16 08:34:24;;;;;;;23.85;4.57;;;;;;;5.74;100.00;103660.50;5034953;28;20082;-86
2023/12/16 08:36:49;;;;;;;12.30;3.38;;;;;;;5.82;100.00;103666.72;4996564;28;20120;-86
2023/12/16 08:39:15;;;;;;;19.55;4.35;;;;;;;5.86;100.00;103663.03;5038886;28;20025;-87
2023/12/16 08:41:41;;;;;;;27.92;3.78;;;;;;;5.87;100.00;103661.22;5044019;28;20475;-87
2023/12/16 08:44:06;;;;;;;19.50;4.10;;;;;;;5.92;100.00;103648.47;5003473;28;20109;-87
2023/12/16 08:46:39;;;;;;;17.42;4.10;;;;;;;5.99;100.00;103661.09;5050519;28;20124;-87
2023/12/16 08:49:04;;;;;;;14.35;3.58;;;;;;;6.05;100.00;103663.72;5052487;28;20036;-87
2023/12/16 08:51:30;;;;;;;19.90;3.97;;;;;;;6.18;100.00;103668.97;5062223;28;20025;-88
2023/12/16 08:53:56;;;;;;;19.10;4.10;;;;;;;6.27;100.00;103668.81;5046401;28;20487;-88
2023/12/16 08:56:21;;;;;;;21.45;3.67;;;;;;;6.36;100.00;103668.69;5022146;28;20036;-88
2023/12/16 08:58:46;;;;;;;26.80;4.40;;;;;;;6.42;100.00;103674.00;5010331;28;20044;-88
2023/12/16 09:01:12;;;;;;;18.50;3.78;;;;;;;6.51;100.00;103669.34;5025898;28;20021;-94
2023/12/16 09:03:41;;;;;;;19.20;3.75;;;;;;;6.53;100.00;103667.53;5025069;28;20036;-94
2023/12/16 09:06:07;;;;;;;16.10;3.85;;;;;;;6.55;100.00;103677.44;5036073;28;20051;-93
2023/12/16 09:08:32;;;;;;;24.83;3.60;;;;;;;6.60;100.00;103672.81;5012729;28;20507;-94
2023/12/16 09:10:57;;;;;;;22.00;3.58;;;;;;;6.66;100.00;103677.28;5010376;28;20075;-93
2023/12/16 09:13:23;;;;;;;16.83;3.83;;;;;;;6.65;100.00;103671.84;5040089;28;20083;-93
2023/12/16 09:15:49;;;;;;;13.23;3.55;;;;;;;6.71;100.00;103674.47;5036314;28;20033;-94
2023/12/16 09:18:14;;;;;;;18.30;3.88;;;;;;;6.73;100.00;103665.34;5032562;28;20039;-93
2023/12/16 09:20:40;;;;;;;19.13;3.63;;;;;;;6.80;100.00;103668.84;5025242;28;20071;-92
2023/12/16 09:23:06;;;;;;;19.75;4.10;;;;;;;6.87;100.00;103666.91;5047451;28;20020;-95
2023/12/16 09:25:31;;;;;;;34.03;4.32;;;;;;;6.92;100.00;103665.94;5055728;28;20083;-95
2023/12/16 09:27:56;;;;;;;20.90;3.10;;;;;;;6.92;100.00;103673.19;5029024;28;20033;-94
2023/12/16 09:30:22;;;;;;;26.10;3.90;;;;;;;6.96;100.00;103674.94;5029526;28;20094;-96
2023/12/16 09:32:48;;;;;;;28.63;3.80;;;;;;;7.06;100.00;103676.56;5014934;28;20033;-95
2023/12/16 09:35:13;;;;;;;24.42;3.92;;;;;;;7.12;100.00;103678.28;5029161;28;20029;-94
2023/12/16 09:37:40;;;;;;;25.13;4.00;;;;;;;7.18;100.00;103676.34;5030839;28;20071;-95
2023/12/16 09:40:06;;;;;;;18.30;3.25;;;;;;;7.23;100.00;103676.25;5027730;28;20141;-96
2023/12/16 09:42:38;;;;;;;17.75;3.65;;;;;;;7.28;100.00;103684.31;5020876;28;20048;-96
2023/12/16 09:45:05;;;;;;;17.08;3.28;;;;;;;7.33;100.00;103682.41;5020561;28;20464;-93
2023/12/16 09:47:31;;;;;;;20.58;4.38;;;;;;;7.41;100.00;103688.63;4992561;28;20040;-95
2023/12/16 09:50:00;;;;;;;24.45;4.30;;;;;;;7.43;100.00;103694.00;5008013;28;20037;-95
2023/12/16 09:52:26;;;;;;;18.10;3.17;;;;;;;7.46;100.00;103694.88;5012266;28;20029;-95
2023/12/16 09:54:52;;;;;;;24.30;3.38;;;;;;;7.53;100.00;103696.53;5013280;28;20034;-95
2023/12/16 09:57:20;;;;;;;32.83;3.42;;;;;;;7.56;100.00;103698.31;4991986;28;20372;-93
2023/12/16 09:59:47;;;;;;;21.58;3.33;;;;;;;7.63;100.00;103701.81;5029043;28;20029;-93
2023/12/16 10:02:23;;;;;;;17.95;3.03;;;;;;;7.62;100.00;103703.63;5020620;28;20017;-93
2023/12/16 10:04:51;;;;;;;10.00;2.67;;;;;;;7.73;100.00;103703.41;5012513;28;20083;-93
2023/12/16 10:07:17;;;;;;;18.77;2.85;;;;;;;7.72;100.00;103704.31;5010113;28;20069;-93
2023/12/16 10:09:42;;;;;;;17.80;3.08;;;;;;;7.77;100.00;103701.50;5003303;28;20038;-91
2023/12/16 10:12:09;;;;;;;18.33;4.57;;;;;;;7.87;100.00;103700.38;5011202;28;20391;-94
2023/12/16 10:14:48;;;;;;;28.83;3.88;;;;;;;7.97;100.00;103690.16;4988442;28;20061;-91
2023/12/16 10:17:19;;;;;;;20.25;2.80;;;;;;;7.99;100.00;103686.47;4995504;28;20033;-92
2023/12/16 10:19:47;;;;;;;16.95;2.88;;;;;;;8.07;100.00;103694.50;5014795;28;20018;-92
2023/12/16 10:22:19;;;;;;;20.40;3.78;;;;;;;8.09;100.00;103703.53;4984180;28;20030;-90
2023/12/16 10:24:45;;;;;;;15.70;3.50;;;;;;;8.18;100.00;103700.59;4989919;28;20026;-93
2023/12/16 10:27:11;;;;;;;20.90;3.40;;;;;;;8.26;100.00;103704.06;5004836;28;20051;-92
2023/12/16 10:29:39;;;;;;;19.00;2.53;;;;;;;8.25;100.00;103704.09;5015178;28;20032;-92
2023/12/16 10:32:10;;;;;;;23.48;3.22;;;;;;;8.31;100.00;103713.94;5019507;28;20037;-92
2023/12/16 10:34:36;;;;;;;23.23;3.72;;;;;;;8.35;100.00;103704.78;5027192;28;20030;-92
2023/12/16 10:37:08;;;;;;;17.73;3.13;;;;;;;8.36;100.00;103706.53;5019006;28;20041;-90
2023/12/16 10:39:35;;;;;;;21.20;3.00;;;;;;;8.39;100.00;103698.28;5044971;28;20017;-92
2023/12/16 10:42:04;;;;;;;22.63;2.65;;;;;;;8.43;100.00;103697.31;5047026;28;20268;-91
2023/12/16 10:44:29;;;;;;;17.27;2.75;;;;;;;8.41;100.00;103694.59;5041961;28;20036;-92
2023/12/16 10:46:56;;;;;;;26.83;3.45;;;;;;;8.45;100.00;103703.63;5035243;28;20040;-92
2023/12/16 10:49:31;;;;;;;17.88;3.40;;;;;;;8.42;100.00;103693.63;5024656;28;20029;-93
2023/12/16 10:52:10;;;;;;;25.80;3.65;;;;;;;8.45;100.00;103692.72;5044751;28;20037;-92
2023/12/16 10:54:41;;;;;;;24.13;4.43;;;;;;;8.48;100.00;103698.09;5039518;28;20018;-90
2023/12/16 10:57:28;;;;;;;22.70;4.40;;;;;;;8.55;100.00;103699.75;5038893;28;20041;-91
2023/12/16 11:00:06;;;;;;;24.13;3.78;;;;;;;8.52;100.00;103699.81;5041645;28;20474;-92
2023/12/16 11:02:36;;;;;;;23.85;4.07;;;;;;;8.54;100.00;103695.19;5045871;28;20063;-92
2023/12/16 11:05:28;;;;;;;21.63;3.60;;;;;;;8.55;100.00;103688.81;5057274;28;20021;-92
2023/12/16 11:07:57;;;;;;;19.60;3.13;;;;;;;8.54;100.00;103680.66;5026835;28;20052;-92
2023/12/16 11:10:23;;;;;;;17.35;3.22;;;;;;;8.60;100.00;103684.13;5057599;28;20059;-91
2023/12/16 11:12:51;;;;;;;14.95;3.03;;;;;;;8.54;100.00;103687.00;5051477;28;20025;-91